Terminal Aerodrome Forecast
Issued by NWS

Home | Current Version | Previous Version | Text Only | Print | Product List | Glossary On
Versions: 1 2 3 4 5 6 7 8 9 10 11 12 13 14 15 16
000
FTUS43 KDMX 171726
TAFOTM
TAF
KOTM 171726Z 1718/1818 30014KT P6SM SCT025
     FM180000 VRB05KT P6SM FEW200
     FM181600 14008KT P6SM FEW150=

USA.gov is the U.S. government's official web portal to all federal, state and local government web resources and services.